createdAt,value
2019-05-20T00:00:40.161Z,2.50
2019-05-20T00:03:09.957Z,2.90
2019-05-20T00:05:39.765Z,2.85
2019-05-20T00:08:09.433Z,2.98
2019-05-20T00:10:39.053Z,3.95
2019-05-20T00:13:08.703Z,2.75
2019-05-20T00:15:38.396Z,3.55
2019-05-20T00:18:08.051Z,2.72
2019-05-20T00:20:37.671Z,3.35
2019-05-20T00:23:07.340Z,2.92
2019-05-20T00:25:37.015Z,5.03
2019-05-20T00:28:06.630Z,3.90
2019-05-20T00:30:36.293Z,2.22
2019-05-20T00:33:05.993Z,2.22
2019-05-20T00:35:36.040Z,3.62
2019-05-20T00:38:05.667Z,3.70
2019-05-20T00:40:35.460Z,4.20
2019-05-20T00:43:05.086Z,2.05
2019-05-20T00:45:34.803Z,3.30
2019-05-20T00:48:04.422Z,3.17
2019-05-20T00:50:35.403Z,2.80
2019-05-20T00:53:05.094Z,2.42
2019-05-20T00:55:36.882Z,4.45
2019-05-20T00:58:06.529Z,4.08
2019-05-20T01:00:36.929Z,2.77
2019-05-20T01:03:06.721Z,2.77
2019-05-20T01:05:36.342Z,3.70
2019-05-20T01:08:06.057Z,2.60
2019-05-20T01:10:35.685Z,1.90
2019-05-20T01:13:08.020Z,3.17
2019-05-20T01:15:37.645Z,3.45
2019-05-20T01:18:07.312Z,2.52
2019-05-20T01:20:36.949Z,2.12
2019-05-20T01:23:06.841Z,2.58
2019-05-20T01:25:36.483Z,1.50
2019-05-20T01:28:06.106Z,3.15
2019-05-20T01:30:35.814Z,3.27
2019-05-20T01:33:13.933Z,3.15
2019-05-20T01:35:36.881Z,3.58
2019-05-20T01:38:06.507Z,2.27
2019-05-20T01:40:36.149Z,2.10
2019-05-20T01:43:05.785Z,2.50
2019-05-20T01:45:35.433Z,2.35
2019-05-20T01:48:05.079Z,1.80
2019-05-20T01:50:34.770Z,3.92
2019-05-20T01:53:04.429Z,1.62
2019-05-20T01:55:34.042Z,2.47
2019-05-20T01:58:03.691Z,2.37
2019-05-20T02:00:33.324Z,2.83
2019-05-20T02:03:02.962Z,2.62
2019-05-20T02:05:32.593Z,2.75
2019-05-20T02:08:02.604Z,3.58
2019-05-20T02:10:32.224Z,5.70
2019-05-20T02:13:01.844Z,1.67
2019-05-20T02:15:33.132Z,2.47
2019-05-20T02:18:02.749Z,3.35
2019-05-20T02:20:32.401Z,2.72
2019-05-20T02:23:15.474Z,3.37
2019-05-20T02:25:47.513Z,3.77
2019-05-20T02:28:17.475Z,3.33
2019-05-20T02:30:47.191Z,2.05
2019-05-20T02:33:16.817Z,3.55
2019-05-20T02:35:46.524Z,3.00
2019-05-20T02:38:16.144Z,4.53
2019-05-20T02:40:45.838Z,4.17
2019-05-20T02:43:15.695Z,3.47
2019-05-20T02:45:45.383Z,2.75
2019-05-20T02:48:15.101Z,3.10
2019-05-20T02:50:44.727Z,2.27
2019-05-20T02:53:14.441Z,3.30
2019-05-20T02:55:44.095Z,3.42
2019-05-20T02:58:13.792Z,2.67
2019-05-20T03:00:43.485Z,2.90
2019-05-20T03:03:13.134Z,3.77
2019-05-20T03:05:42.825Z,3.27
2019-05-20T03:08:12.444Z,4.40
2019-05-20T03:10:42.763Z,4.00
2019-05-20T03:13:12.454Z,5.15
2019-05-20T03:15:42.100Z,2.22
2019-05-20T03:18:11.727Z,1.95
2019-05-20T03:20:41.393Z,2.62
2019-05-20T03:23:11.614Z,2.90
2019-05-20T03:25:41.581Z,3.00
2019-05-20T03:28:11.298Z,2.90
2019-05-20T03:30:40.941Z,2.70
2019-05-20T03:33:10.562Z,2.55
2019-05-20T03:35:40.261Z,3.55
2019-05-20T03:38:09.900Z,2.40
2019-05-20T03:40:39.510Z,2.80
2019-05-20T03:43:09.237Z,4.87
2019-05-20T03:45:38.858Z,2.17
2019-05-20T03:48:08.510Z,2.02
2019-05-20T03:50:38.142Z,2.90
2019-05-20T03:53:07.793Z,2.37
2019-05-20T03:55:37.395Z,2.83
2019-05-20T03:58:07.038Z,2.45
2019-05-20T04:00:49.459Z,2.77
2019-05-20T04:03:19.282Z,3.02
2019-05-20T04:05:49.116Z,3.00
2019-05-20T04:08:18.742Z,2.25
2019-05-20T04:10:48.390Z,2.62
2019-05-20T04:13:18.155Z,1.75
2019-05-20T04:15:47.807Z,2.40
2019-05-20T04:18:17.500Z,2.83
2019-05-20T04:20:47.162Z,2.40
2019-05-20T04:23:16.844Z,3.00
2019-05-20T04:25:46.503Z,3.22
2019-05-20T04:28:16.165Z,2.08
2019-05-20T04:30:45.826Z,2.85
2019-05-20T04:33:15.549Z,2.02
2019-05-20T04:35:49.486Z,2.17
2019-05-20T04:38:16.541Z,3.62
2019-05-20T04:40:46.175Z,3.83
2019-05-20T04:43:15.815Z,2.58
2019-05-20T04:45:45.567Z,4.12
2019-05-20T04:48:15.226Z,2.55
2019-05-20T04:50:44.848Z,3.20
2019-05-20T04:53:14.524Z,3.10
2019-05-20T04:55:44.178Z,4.30
2019-05-20T04:58:13.776Z,2.40
2019-05-20T05:00:53.002Z,2.37
2019-05-20T05:03:23.797Z,3.05
2019-05-20T05:05:53.773Z,2.65
2019-05-20T05:08:23.920Z,2.75
2019-05-20T05:10:53.884Z,4.22
2019-05-20T05:13:24.707Z,3.67
2019-05-20T05:15:54.553Z,3.92
2019-05-20T05:18:24.389Z,3.92
2019-05-20T05:20:54.257Z,6.95
2019-05-20T05:23:24.586Z,2.98
2019-05-20T05:25:54.415Z,2.77
2019-05-20T05:28:24.194Z,4.33
2019-05-20T05:30:54.193Z,3.27
2019-05-20T05:33:23.907Z,4.45
2019-05-20T05:35:53.981Z,4.17
2019-05-20T05:38:23.830Z,3.30
2019-05-20T05:40:53.591Z,4.60
2019-05-20T05:43:23.235Z,3.00
2019-05-20T05:45:52.859Z,3.52
2019-05-20T05:48:23.027Z,3.42
2019-05-20T05:50:52.713Z,3.42
2019-05-20T05:53:22.411Z,3.10
2019-05-20T05:55:52.061Z,3.30
2019-05-20T05:58:21.685Z,3.47
2019-05-20T06:00:51.414Z,3.02
2019-05-20T06:03:21.043Z,4.30
2019-05-20T06:05:50.670Z,3.30
2019-05-20T06:08:20.325Z,3.67
2019-05-20T06:10:50.006Z,2.90
2019-05-20T06:13:19.627Z,3.10
2019-05-20T06:15:49.276Z,3.47
2019-05-20T06:18:18.900Z,2.55
2019-05-20T06:20:48.575Z,2.87
2019-05-20T06:23:18.204Z,4.55
2019-05-20T06:25:47.837Z,4.60
2019-05-20T06:28:17.485Z,3.17
2019-05-20T06:30:47.742Z,2.77
2019-05-20T06:33:17.554Z,2.87
2019-05-20T06:35:47.912Z,3.37
2019-05-20T06:38:19.940Z,4.20
2019-05-20T06:40:49.569Z,5.78
2019-05-20T06:43:19.329Z,3.47
2019-05-20T06:45:48.945Z,3.05
2019-05-20T06:48:18.609Z,3.58
2019-05-20T06:50:48.225Z,3.75
2019-05-20T06:53:17.845Z,4.67
2019-05-20T06:55:47.492Z,4.58
2019-05-20T06:58:17.126Z,3.75
2019-05-20T07:00:46.769Z,3.30
2019-05-20T07:03:16.391Z,3.90
2019-05-20T07:05:46.099Z,5.47
2019-05-20T07:08:15.716Z,3.50
2019-05-20T07:10:46.033Z,4.12
2019-05-20T07:13:16.293Z,3.30
2019-05-20T07:15:46.286Z,3.37
2019-05-20T07:18:15.916Z,3.40
2019-05-20T07:20:45.591Z,4.62
2019-05-20T07:23:15.209Z,4.50
2019-05-20T07:25:44.832Z,5.20
2019-05-20T07:28:14.553Z,5.10
2019-05-20T07:30:44.417Z,5.60
2019-05-20T07:33:14.139Z,5.97
2019-05-20T07:35:44.330Z,7.47
2019-05-20T07:38:13.976Z,4.90
2019-05-20T07:40:43.605Z,6.53
2019-05-20T07:43:13.325Z,7.87
2019-05-20T07:45:43.750Z,8.60
2019-05-20T07:48:13.717Z,7.70
2019-05-20T07:50:44.366Z,8.35
2019-05-20T07:53:14.976Z,8.85
2019-05-20T07:55:58.253Z,8.53
2019-05-20T07:58:33.752Z,11.48
2019-05-20T08:01:03.809Z,9.43
2019-05-20T08:03:33.485Z,8.60
2019-05-20T08:06:03.140Z,9.38
2019-05-20T08:08:33.129Z,9.23
2019-05-20T08:11:03.042Z,9.65
2019-05-20T08:13:32.734Z,12.98
2019-05-20T08:16:02.409Z,12.33
2019-05-20T08:18:32.105Z,12.63
2019-05-20T08:21:01.753Z,10.60
2019-05-20T08:23:31.376Z,12.03
2019-05-20T08:26:01.217Z,10.95
2019-05-20T08:28:30.999Z,10.53
2019-05-20T08:31:00.612Z,11.90
2019-05-20T08:33:30.457Z,12.13
2019-05-20T08:36:00.122Z,13.38
2019-05-20T08:38:29.787Z,13.72
2019-05-20T08:40:59.505Z,12.07
2019-05-20T08:43:29.193Z,13.72
2019-05-20T08:45:58.855Z,12.68
2019-05-20T08:48:28.533Z,13.95
2019-05-20T08:50:58.206Z,13.30
2019-05-20T08:53:27.904Z,15.00
2019-05-20T08:55:57.534Z,15.25
2019-05-20T08:58:27.143Z,13.22
2019-05-20T09:00:56.798Z,13.03
2019-05-20T09:03:30.178Z,12.58
2019-05-20T09:05:57.937Z,13.22
2019-05-20T09:08:27.763Z,13.05
2019-05-20T09:10:57.422Z,14.83
2019-05-20T09:13:27.221Z,14.15
2019-05-20T09:15:56.896Z,12.80
2019-05-20T09:18:26.515Z,13.22
2019-05-20T09:20:56.162Z,13.60
2019-05-20T09:23:25.796Z,13.25
2019-05-20T09:25:55.461Z,14.00
2019-05-20T09:28:25.859Z,15.03
2019-05-20T09:30:55.963Z,16.82
2019-05-20T09:33:26.779Z,16.85
2019-05-20T09:35:56.465Z,17.02
2019-05-20T09:38:26.122Z,17.75
2019-05-20T09:40:55.796Z,14.28
2019-05-20T09:43:25.481Z,18.17
2019-05-20T09:46:06.146Z,15.10
2019-05-20T09:48:26.492Z,18.82
2019-05-20T09:50:56.191Z,19.00
2019-05-20T09:53:25.910Z,15.43
2019-05-20T09:55:55.561Z,16.77
2019-05-20T09:58:25.285Z,17.20
2019-05-20T10:00:55.040Z,17.57
2019-05-20T10:03:24.711Z,18.37
2019-05-20T10:05:54.411Z,18.75
2019-05-20T10:08:37.527Z,18.15
2019-05-20T10:10:59.424Z,16.67
2019-05-20T10:13:26.955Z,16.42
2019-05-20T10:15:56.606Z,16.02
2019-05-20T10:18:36.716Z,16.90
2019-05-20T10:20:57.674Z,17.73
2019-05-20T10:23:27.309Z,19.05
2019-05-20T10:25:57.028Z,15.53
2019-05-20T10:28:26.640Z,15.70
2019-05-20T10:30:56.322Z,16.20
2019-05-20T10:33:26.067Z,20.10
2019-05-20T10:35:55.715Z,16.77
2019-05-20T10:38:25.336Z,16.75
2019-05-20T10:40:55.005Z,17.67
2019-05-20T10:43:24.625Z,17.55
2019-05-20T10:45:54.300Z,16.40
2019-05-20T10:48:23.934Z,17.32
2019-05-20T10:50:53.632Z,18.70
2019-05-20T10:53:23.363Z,20.12
2019-05-20T10:55:52.995Z,17.80
2019-05-20T10:58:22.665Z,16.12
2019-05-20T11:01:02.512Z,16.85
2019-05-20T11:03:23.806Z,16.70
2019-05-20T11:05:53.496Z,20.35
2019-05-20T11:08:23.224Z,19.35
2019-05-20T11:10:52.968Z,16.52
2019-05-20T11:13:22.657Z,20.05
2019-05-20T11:15:52.372Z,21.00
2019-05-20T11:18:22.229Z,22.80
2019-05-20T11:20:51.932Z,19.27
2019-05-20T11:23:21.562Z,20.12
2019-05-20T11:25:51.209Z,21.55
2019-05-20T11:28:20.829Z,22.20
2019-05-20T11:30:50.474Z,20.75
2019-05-20T11:33:20.097Z,23.90
2019-05-20T11:35:49.747Z,22.27
2019-05-20T11:38:19.448Z,23.50
2019-05-20T11:40:49.181Z,22.02
2019-05-20T11:43:18.942Z,23.40
2019-05-20T11:45:48.610Z,25.88
2019-05-20T11:48:18.233Z,26.07
2019-05-20T11:50:47.862Z,26.82
2019-05-20T11:53:17.760Z,24.72
2019-05-20T11:55:47.392Z,23.47
2019-05-20T11:58:17.050Z,24.82
2019-05-20T12:00:46.741Z,26.85
2019-05-20T12:03:16.394Z,24.60
2019-05-20T12:05:46.117Z,25.05
2019-05-20T12:08:15.754Z,24.63
2019-05-20T12:10:45.846Z,28.07
2019-05-20T12:13:15.503Z,29.12
2019-05-20T12:15:45.130Z,30.05
2019-05-20T12:18:14.792Z,31.45
2019-05-20T12:20:48.543Z,35.65
2019-05-20T12:23:18.168Z,29.20
2019-05-20T12:25:47.890Z,29.07
2019-05-20T12:28:17.510Z,26.42
2019-05-20T12:30:47.168Z,34.00
2019-05-20T12:33:19.067Z,33.48
2019-05-20T12:35:48.177Z,36.85
2019-05-20T12:38:17.814Z,30.57
2019-05-20T12:40:47.456Z,28.92
2019-05-20T12:43:17.078Z,32.35
2019-05-20T12:45:46.796Z,36.30
2019-05-20T12:48:16.421Z,31.30
2019-05-20T12:50:46.073Z,36.83
2019-05-20T12:53:15.700Z,36.33
2019-05-20T12:55:45.422Z,33.15
2019-05-20T12:58:15.045Z,34.35
2019-05-20T13:00:44.970Z,34.63
2019-05-20T13:03:14.599Z,33.90
2019-05-20T13:05:44.237Z,34.35
2019-05-20T13:08:13.909Z,35.35
2019-05-20T13:10:43.527Z,34.85
2019-05-20T13:13:13.180Z,37.35
2019-05-20T13:15:42.812Z,36.05
2019-05-20T13:18:12.452Z,37.20
2019-05-20T13:20:42.089Z,37.05
2019-05-20T13:23:13.924Z,32.05
2019-05-20T13:25:43.126Z,31.87
2019-05-20T13:28:12.795Z,35.68
2019-05-20T13:30:42.426Z,36.08
2019-05-20T13:33:12.122Z,35.98
2019-05-20T13:35:41.773Z,33.45
2019-05-20T13:38:11.409Z,40.30
2019-05-20T13:40:46.223Z,39.08
2019-05-20T13:43:12.412Z,34.98
2019-05-20T13:45:42.063Z,30.00
2019-05-20T13:48:11.692Z,27.65
2019-05-20T13:50:41.366Z,27.10
2019-05-20T13:53:10.981Z,28.55
2019-05-20T13:55:40.634Z,27.62
2019-05-20T13:58:10.333Z,29.12
2019-05-20T14:00:39.967Z,26.77
2019-05-20T14:03:09.688Z,26.35
2019-05-20T14:05:39.315Z,29.98
2019-05-20T14:08:09.029Z,28.00
2019-05-20T14:10:38.782Z,26.87
2019-05-20T14:13:08.431Z,29.42
2019-05-20T14:15:38.092Z,32.20
2019-05-20T14:18:07.848Z,31.23
2019-05-20T14:20:37.476Z,30.08
2019-05-20T14:23:07.098Z,30.50
2019-05-20T14:25:36.745Z,30.70
2019-05-20T14:28:06.449Z,36.35
2019-05-20T14:30:36.180Z,29.75
2019-05-20T14:33:05.797Z,28.77
2019-05-20T14:35:35.441Z,31.65
2019-05-20T14:38:05.071Z,35.98
2019-05-20T14:40:34.750Z,36.85
2019-05-20T14:43:04.378Z,30.88
2019-05-20T14:45:34.022Z,35.98
2019-05-20T14:48:03.791Z,32.40
2019-05-20T14:50:33.564Z,32.23
2019-05-20T14:53:03.226Z,30.52
2019-05-20T14:55:41.834Z,35.48
2019-05-20T14:58:04.269Z,28.42
2019-05-20T15:00:33.901Z,30.62
2019-05-20T15:03:03.544Z,30.82
2019-05-20T15:05:33.219Z,33.95
2019-05-20T15:08:02.941Z,34.88
2019-05-20T15:10:32.833Z,27.90
2019-05-20T15:13:04.517Z,29.72
2019-05-20T15:15:34.749Z,31.52
2019-05-20T15:18:04.419Z,31.93
2019-05-20T15:20:34.075Z,30.02
2019-05-20T15:23:05.461Z,34.50
2019-05-20T15:25:35.215Z,33.13
2019-05-20T15:28:04.931Z,35.65
2019-05-20T15:30:34.584Z,31.15
2019-05-20T15:33:07.081Z,33.02
2019-05-20T15:35:36.741Z,32.78
2019-05-20T15:38:06.387Z,31.87
2019-05-20T15:40:36.023Z,32.15
2019-05-20T15:43:05.807Z,32.60
2019-05-20T15:45:35.429Z,31.02
2019-05-20T15:48:05.153Z,34.38
2019-05-20T15:50:34.780Z,33.88
2019-05-20T15:53:04.516Z,30.90
2019-05-20T15:55:34.211Z,30.43
2019-05-20T15:58:04.030Z,31.73
2019-05-20T16:00:33.928Z,34.08
2019-05-20T16:03:03.585Z,28.38
2019-05-20T16:05:33.281Z,31.30
2019-05-20T16:08:03.691Z,32.33
2019-05-20T16:10:33.374Z,33.20
2019-05-20T16:13:03.076Z,30.32
2019-05-20T16:15:32.727Z,25.97
2019-05-20T16:18:02.463Z,27.42
2019-05-20T16:20:32.359Z,34.95
2019-05-20T16:23:01.995Z,29.63
2019-05-20T16:25:31.644Z,29.48
2019-05-20T16:28:01.276Z,31.37
2019-05-20T16:30:30.928Z,29.52
2019-05-20T16:33:00.636Z,27.45
2019-05-20T16:35:30.328Z,28.57
2019-05-20T16:37:59.988Z,29.65
2019-05-20T16:40:29.621Z,29.70
2019-05-20T16:42:59.296Z,28.15
2019-05-20T16:45:28.919Z,27.87
2019-05-20T16:47:58.569Z,32.13
2019-05-20T16:50:28.197Z,30.62
2019-05-20T16:52:57.912Z,28.47
2019-05-20T16:55:27.559Z,29.98
2019-05-20T16:57:57.212Z,28.83
2019-05-20T17:00:32.201Z,35.35
2019-05-20T17:02:58.370Z,31.45
2019-05-20T17:05:27.999Z,32.67
2019-05-20T17:07:57.623Z,33.23
2019-05-20T17:10:27.268Z,32.95
2019-05-20T17:12:56.966Z,28.70
2019-05-20T17:15:26.620Z,31.45
2019-05-20T17:17:56.244Z,33.23
2019-05-20T17:20:25.974Z,32.63
2019-05-20T17:22:55.595Z,34.40
2019-05-20T17:25:25.359Z,36.17
2019-05-20T17:27:55.176Z,35.80
2019-05-20T17:30:24.940Z,33.50
2019-05-20T17:32:54.600Z,36.20
2019-05-20T17:35:24.237Z,35.25
2019-05-20T17:37:55.307Z,37.95
2019-05-20T17:40:25.339Z,36.30
2019-05-20T17:42:55.059Z,35.48
2019-05-20T17:45:24.691Z,37.65
2019-05-20T17:47:54.440Z,34.70
2019-05-20T17:50:24.210Z,33.55
2019-05-20T17:52:53.885Z,36.40
2019-05-20T17:55:23.772Z,36.48
2019-05-20T17:57:54.094Z,36.68
2019-05-20T18:00:23.944Z,35.58
2019-05-20T18:02:53.781Z,37.00
2019-05-20T18:05:23.507Z,33.83
2019-05-20T18:07:53.201Z,33.13
2019-05-20T18:10:24.497Z,34.38
2019-05-20T18:12:54.202Z,33.40
2019-05-20T18:15:24.066Z,33.38
2019-05-20T18:17:53.691Z,34.27
2019-05-20T18:20:23.556Z,36.42
2019-05-20T18:22:53.187Z,34.78
2019-05-20T18:25:22.865Z,36.35
2019-05-20T18:27:52.607Z,33.10
2019-05-20T18:30:22.566Z,38.58
2019-05-20T18:32:52.222Z,38.20
2019-05-20T18:35:21.990Z,35.63
2019-05-20T18:37:51.650Z,34.85
2019-05-20T18:40:21.480Z,37.42
2019-05-20T18:42:51.131Z,35.73
2019-05-20T18:45:20.840Z,42.05
2019-05-20T18:47:50.547Z,35.75
2019-05-20T18:50:20.484Z,38.30
2019-05-20T18:52:50.139Z,40.17
2019-05-20T18:55:19.940Z,37.05
2019-05-20T18:57:49.678Z,41.68
2019-05-20T19:00:19.673Z,36.13
2019-05-20T19:02:49.305Z,36.63
2019-05-20T19:05:19.192Z,36.48
2019-05-20T19:07:49.096Z,38.23
2019-05-20T19:10:19.095Z,39.40
2019-05-20T19:12:48.742Z,39.35
2019-05-20T19:15:18.641Z,41.00
2019-05-20T19:17:48.272Z,41.28
2019-05-20T19:20:17.988Z,38.35
2019-05-20T19:22:47.616Z,43.83
2019-05-20T19:25:17.354Z,39.73
2019-05-20T19:27:46.976Z,52.23
2019-05-20T19:30:17.507Z,45.23
2019-05-20T19:32:47.151Z,43.63
2019-05-20T19:35:16.848Z,48.25
2019-05-20T19:37:46.535Z,50.55
2019-05-20T19:40:16.399Z,50.55
2019-05-20T19:42:46.075Z,52.65
2019-05-20T19:45:15.935Z,55.65
2019-05-20T19:47:45.667Z,54.00
2019-05-20T19:50:17.359Z,54.75
2019-05-20T19:52:47.405Z,58.23
2019-05-20T19:55:18.949Z,51.10
2019-05-20T19:57:48.585Z,53.05
2019-05-20T20:00:18.655Z,51.05
2019-05-20T20:02:48.280Z,55.12
2019-05-20T20:05:18.036Z,55.40
2019-05-20T20:07:47.672Z,56.53
2019-05-20T20:10:17.462Z,56.50
2019-05-20T20:12:47.092Z,58.90
2019-05-20T20:15:20.805Z,58.33
2019-05-20T20:17:50.493Z,59.53
2019-05-20T20:20:20.152Z,54.80
2019-05-20T20:22:49.785Z,62.45
2019-05-20T20:25:19.662Z,64.90
2019-05-20T20:27:49.281Z,63.60
2019-05-20T20:30:19.313Z,63.70
2019-05-20T20:32:48.977Z,64.07
2019-05-20T20:35:18.813Z,65.55
2019-05-20T20:37:48.483Z,67.60
2019-05-20T20:40:18.941Z,69.27
2019-05-20T20:42:48.609Z,62.62
2019-05-20T20:45:18.386Z,64.90
2019-05-20T20:47:48.013Z,61.77
2019-05-20T20:50:18.578Z,67.15
2019-05-20T20:52:48.280Z,68.87
2019-05-20T20:55:18.005Z,67.72
2019-05-20T20:57:47.625Z,62.00
2019-05-20T21:00:17.784Z,62.85
2019-05-20T21:02:53.094Z,61.00
2019-05-20T21:05:19.165Z,53.68
2019-05-20T21:07:51.669Z,50.73
2019-05-20T21:10:20.288Z,57.90
2019-05-20T21:12:49.935Z,56.13
2019-05-20T21:15:19.560Z,56.65
2019-05-20T21:17:49.219Z,52.25
2019-05-20T21:20:18.837Z,57.70
2019-05-20T21:22:48.487Z,54.53
2019-05-20T21:25:18.187Z,50.73
2019-05-20T21:27:47.836Z,51.00
2019-05-20T21:30:17.604Z,48.45
2019-05-20T21:32:47.267Z,48.75
2019-05-20T21:35:16.897Z,49.30
2019-05-20T21:37:46.545Z,42.27
2019-05-20T21:40:16.373Z,46.48
2019-05-20T21:42:45.996Z,46.68
2019-05-20T21:45:15.863Z,45.67
2019-05-20T21:47:45.488Z,42.67
2019-05-20T21:50:15.353Z,41.75
2019-05-20T21:52:44.976Z,45.85
2019-05-20T21:55:14.845Z,37.78
2019-05-20T21:57:44.474Z,45.83
2019-05-20T22:00:19.050Z,41.50
2019-05-20T22:02:48.756Z,42.10
2019-05-20T22:05:18.455Z,43.92
2019-05-20T22:07:48.114Z,40.20
2019-05-20T22:10:17.808Z,44.05
2019-05-20T22:12:47.463Z,44.75
2019-05-20T22:15:17.091Z,46.25
2019-05-20T22:17:46.814Z,42.53
2019-05-20T22:20:16.750Z,45.17
2019-05-20T22:22:46.245Z,44.23
2019-05-20T22:25:15.936Z,48.35
2019-05-20T22:27:45.572Z,40.63
2019-05-20T22:30:15.767Z,47.75
2019-05-20T22:32:45.391Z,39.75
2019-05-20T22:35:15.119Z,41.37
2019-05-20T22:37:44.760Z,40.98
2019-05-20T22:40:14.709Z,41.48
2019-05-20T22:42:44.334Z,40.43
2019-05-20T22:45:14.146Z,43.05
2019-05-20T22:47:43.760Z,38.08
2019-05-20T22:50:13.413Z,38.00
2019-05-20T22:52:43.050Z,41.70
2019-05-20T22:55:12.892Z,39.60
2019-05-20T22:57:42.583Z,32.88
2019-05-20T23:00:12.614Z,32.75
2019-05-20T23:02:42.340Z,32.13
2019-05-20T23:05:12.175Z,31.85
2019-05-20T23:07:41.829Z,32.98
2019-05-20T23:10:11.992Z,30.88
2019-05-20T23:12:41.709Z,26.20
2019-05-20T23:15:12.254Z,26.77
2019-05-20T23:17:41.966Z,25.40
2019-05-20T23:20:11.746Z,25.23
2019-05-20T23:22:41.394Z,23.10
2019-05-20T23:25:11.331Z,23.45
2019-05-20T23:27:40.991Z,20.05
2019-05-20T23:30:11.332Z,22.75
2019-05-20T23:32:40.957Z,23.60
2019-05-20T23:35:11.115Z,20.20
2019-05-20T23:37:40.740Z,16.93
2019-05-20T23:40:11.409Z,17.52
2019-05-20T23:42:41.039Z,16.25
2019-05-20T23:45:11.586Z,12.10
2019-05-20T23:47:41.210Z,12.50
2019-05-20T23:50:11.306Z,13.22
2019-05-20T23:52:40.922Z,13.00
2019-05-20T23:55:11.173Z,12.68
2019-05-20T23:57:40.802Z,12.88
